Sandy Bay Township, Maine
Current Conditions -  °F | °C
As of 10:00 AM on Monday 22 Dec 2014 (Local Time) from CYSC Reporting Station
Overcast Overcast  
Wind Chill: 23°   Ceiling: 2400
Heat Index: 23°   Visibility: 9mi
Dew Point: 21°   Wind: 3mph
Humidity: 93%   Direction: 40°NE
Pressure: 30.38"   Gusts: NA
Location:  45.7142°N, 70.304°W
Report Text: CYSC 221500Z AUTO 04003KT 350V060 9SM OVC024 M05/M06 A3038 RMK SLP304
Loading
Personal Weather Stations






























Interactive Weather Map New forecast layout! Learn more

10-Day Weather Forecast

Advertisements
Track Severe Weather on mobile